sensor_id;sensor_type;location;lat;lon;timestamp;P1;durP1;ratioP1;P2;durP2;ratioP2
20415;SDS011;10367;52.202;5.996;2022-09-30T00:01:46;14.90;;;10.47;;
20415;SDS011;10367;52.202;5.996;2022-09-30T00:04:17;16.20;;;10.63;;
20415;SDS011;10367;52.202;5.996;2022-09-30T00:06:47;18.37;;;11.63;;
20415;SDS011;10367;52.202;5.996;2022-09-30T00:09:17;16.67;;;10.90;;
20415;SDS011;10367;52.202;5.996;2022-09-30T00:11:47;20.30;;;12.27;;
20415;SDS011;10367;52.202;5.996;2022-09-30T00:14:17;16.20;;;10.23;;
20415;SDS011;10367;52.202;5.996;2022-09-30T00:16:48;20.50;;;12.23;;
20415;SDS011;10367;52.202;5.996;2022-09-30T00:19:17;18.37;;;11.37;;
20415;SDS011;10367;52.202;5.996;2022-09-30T00:21:46;18.87;;;11.50;;
20415;SDS011;10367;52.202;5.996;2022-09-30T00:24:14;18.03;;;10.33;;
20415;SDS011;10367;52.202;5.996;2022-09-30T00:26:43;15.70;;;10.20;;
20415;SDS011;10367;52.202;5.996;2022-09-30T00:29:11;11.77;;;9.47;;
20415;SDS011;10367;52.202;5.996;2022-09-30T00:31:40;10.97;;;8.63;;
20415;SDS011;10367;52.202;5.996;2022-09-30T00:34:10;14.77;;;9.03;;
20415;SDS011;10367;52.202;5.996;2022-09-30T00:36:40;12.40;;;9.33;;
20415;SDS011;10367;52.202;5.996;2022-09-30T00:39:11;13.87;;;9.40;;
20415;SDS011;10367;52.202;5.996;2022-09-30T00:41:42;13.47;;;9.37;;
20415;SDS011;10367;52.202;5.996;2022-09-30T00:47:24;9.60;;;8.20;;
20415;SDS011;10367;52.202;5.996;2022-09-30T00:50:00;17.73;;;10.60;;
20415;SDS011;10367;52.202;5.996;2022-09-30T00:52:33;14.43;;;8.60;;
20415;SDS011;10367;52.202;5.996;2022-09-30T00:55:03;11.47;;;8.60;;
20415;SDS011;10367;52.202;5.996;2022-09-30T00:57:36;11.87;;;7.83;;
20415;SDS011;10367;52.202;5.996;2022-09-30T01:00:07;14.70;;;8.63;;
20415;SDS011;10367;52.202;5.996;2022-09-30T01:02:36;14.27;;;8.30;;
20415;SDS011;10367;52.202;5.996;2022-09-30T01:05:06;15.60;;;7.87;;
20415;SDS011;10367;52.202;5.996;2022-09-30T01:07:37;10.10;;;7.67;;
20415;SDS011;10367;52.202;5.996;2022-09-30T01:10:06;13.17;;;8.10;;
20415;SDS011;10367;52.202;5.996;2022-09-30T01:12:35;9.53;;;7.77;;
20415;SDS011;10367;52.202;5.996;2022-09-30T01:15:04;10.57;;;8.27;;
20415;SDS011;10367;52.202;5.996;2022-09-30T01:17:35;9.27;;;8.23;;
20415;SDS011;10367;52.202;5.996;2022-09-30T01:20:28;12.73;;;8.23;;
20415;SDS011;10367;52.202;5.996;2022-09-30T01:23:28;11.00;;;7.97;;
20415;SDS011;10367;52.202;5.996;2022-09-30T01:26:18;11.30;;;7.70;;
20415;SDS011;10367;52.202;5.996;2022-09-30T01:29:19;8.30;;;7.03;;
20415;SDS011;10367;52.202;5.996;2022-09-30T01:32:27;10.10;;;7.03;;
20415;SDS011;10367;52.202;5.996;2022-09-30T01:35:10;8.33;;;7.37;;
20415;SDS011;10367;52.202;5.996;2022-09-30T01:37:48;13.73;;;8.40;;
20415;SDS011;10367;52.202;5.996;2022-09-30T01:40:29;8.90;;;7.43;;
20415;SDS011;10367;52.202;5.996;2022-09-30T01:43:06;9.77;;;8.13;;
20415;SDS011;10367;52.202;5.996;2022-09-30T01:45:41;11.10;;;7.97;;
20415;SDS011;10367;52.202;5.996;2022-09-30T01:48:15;9.17;;;7.20;;
20415;SDS011;10367;52.202;5.996;2022-09-30T01:50:49;13.03;;;8.70;;
20415;SDS011;10367;52.202;5.996;2022-09-30T01:53:26;11.03;;;8.10;;
20415;SDS011;10367;52.202;5.996;2022-09-30T01:56:05;11.37;;;7.80;;
20415;SDS011;10367;52.202;5.996;2022-09-30T01:58:41;9.37;;;6.80;;
20415;SDS011;10367;52.202;5.996;2022-09-30T02:01:18;11.27;;;8.03;;
20415;SDS011;10367;52.202;5.996;2022-09-30T02:03:54;13.03;;;8.97;;
20415;SDS011;10367;52.202;5.996;2022-09-30T02:06:26;14.80;;;8.17;;
20415;SDS011;10367;52.202;5.996;2022-09-30T02:08:58;14.70;;;9.20;;
20415;SDS011;10367;52.202;5.996;2022-09-30T02:11:32;10.93;;;6.97;;
20415;SDS011;10367;52.202;5.996;2022-09-30T02:14:04;9.93;;;7.20;;
20415;SDS011;10367;52.202;5.996;2022-09-30T02:16:39;9.23;;;7.23;;
20415;SDS011;10367;52.202;5.996;2022-09-30T02:19:13;7.13;;;6.33;;
20415;SDS011;10367;52.202;5.996;2022-09-30T02:21:47;9.83;;;7.53;;
20415;SDS011;10367;52.202;5.996;2022-09-30T02:24:23;10.50;;;7.63;;
20415;SDS011;10367;52.202;5.996;2022-09-30T02:26:57;14.00;;;7.73;;
20415;SDS011;10367;52.202;5.996;2022-09-30T02:29:28;13.00;;;7.50;;
20415;SDS011;10367;52.202;5.996;2022-09-30T02:32:03;11.77;;;7.73;;
20415;SDS011;10367;52.202;5.996;2022-09-30T02:34:38;11.70;;;7.93;;
20415;SDS011;10367;52.202;5.996;2022-09-30T02:37:12;7.23;;;6.53;;
20415;SDS011;10367;52.202;5.996;2022-09-30T02:39:45;14.20;;;8.93;;
20415;SDS011;10367;52.202;5.996;2022-09-30T02:42:17;9.20;;;7.07;;
20415;SDS011;10367;52.202;5.996;2022-09-30T02:44:49;10.70;;;7.93;;
20415;SDS011;10367;52.202;5.996;2022-09-30T02:47:21;10.37;;;7.53;;
20415;SDS011;10367;52.202;5.996;2022-09-30T02:49:58;13.40;;;8.90;;
20415;SDS011;10367;52.202;5.996;2022-09-30T02:52:36;9.17;;;7.33;;
20415;SDS011;10367;52.202;5.996;2022-09-30T02:55:16;9.13;;;7.47;;
20415;SDS011;10367;52.202;5.996;2022-09-30T02:57:52;17.33;;;8.30;;
20415;SDS011;10367;52.202;5.996;2022-09-30T03:00:25;13.43;;;8.70;;
20415;SDS011;10367;52.202;5.996;2022-09-30T03:02:55;11.77;;;7.70;;
20415;SDS011;10367;52.202;5.996;2022-09-30T03:05:28;15.03;;;8.53;;
20415;SDS011;10367;52.202;5.996;2022-09-30T03:07:58;15.23;;;8.50;;
20415;SDS011;10367;52.202;5.996;2022-09-30T03:10:27;12.87;;;7.80;;
20415;SDS011;10367;52.202;5.996;2022-09-30T03:13:02;13.33;;;8.03;;
20415;SDS011;10367;52.202;5.996;2022-09-30T03:15:45;11.50;;;7.77;;
20415;SDS011;10367;52.202;5.996;2022-09-30T03:18:35;8.30;;;6.83;;
20415;SDS011;10367;52.202;5.996;2022-09-30T03:21:18;8.63;;;6.50;;
20415;SDS011;10367;52.202;5.996;2022-09-30T03:26:56;10.00;;;6.93;;
20415;SDS011;10367;52.202;5.996;2022-09-30T03:29:33;6.80;;;6.20;;
20415;SDS011;10367;52.202;5.996;2022-09-30T03:32:13;6.87;;;6.23;;
20415;SDS011;10367;52.202;5.996;2022-09-30T03:34:58;11.47;;;7.90;;
20415;SDS011;10367;52.202;5.996;2022-09-30T03:37:33;6.77;;;6.07;;
20415;SDS011;10367;52.202;5.996;2022-09-30T03:40:14;7.67;;;6.30;;
20415;SDS011;10367;52.202;5.996;2022-09-30T03:42:52;11.43;;;8.00;;
20415;SDS011;10367;52.202;5.996;2022-09-30T03:45:25;9.80;;;7.60;;
20415;SDS011;10367;52.202;5.996;2022-09-30T03:48:00;14.33;;;8.97;;
20415;SDS011;10367;52.202;5.996;2022-09-30T03:50:32;12.23;;;7.90;;
20415;SDS011;10367;52.202;5.996;2022-09-30T03:53:08;7.40;;;6.57;;
20415;SDS011;10367;52.202;5.996;2022-09-30T03:55:46;8.67;;;6.83;;
20415;SDS011;10367;52.202;5.996;2022-09-30T03:58:16;8.67;;;6.97;;
20415;SDS011;10367;52.202;5.996;2022-09-30T04:00:48;11.73;;;8.07;;
20415;SDS011;10367;52.202;5.996;2022-09-30T04:03:19;13.43;;;8.57;;
20415;SDS011;10367;52.202;5.996;2022-09-30T04:05:49;10.17;;;7.57;;
20415;SDS011;10367;52.202;5.996;2022-09-30T04:08:19;15.13;;;8.33;;
20415;SDS011;10367;52.202;5.996;2022-09-30T04:10:48;11.33;;;8.10;;
20415;SDS011;10367;52.202;5.996;2022-09-30T04:13:17;11.70;;;8.37;;
20415;SDS011;10367;52.202;5.996;2022-09-30T04:15:51;23.23;;;8.23;;
20415;SDS011;10367;52.202;5.996;2022-09-30T04:18:21;9.30;;;7.47;;
20415;SDS011;10367;52.202;5.996;2022-09-30T04:20:49;11.03;;;7.63;;
20415;SDS011;10367;52.202;5.996;2022-09-30T04:23:19;12.37;;;8.20;;
20415;SDS011;10367;52.202;5.996;2022-09-30T04:25:50;11.33;;;7.97;;
20415;SDS011;10367;52.202;5.996;2022-09-30T04:28:19;12.77;;;8.00;;
20415;SDS011;10367;52.202;5.996;2022-09-30T04:30:48;13.40;;;8.53;;
20415;SDS011;10367;52.202;5.996;2022-09-30T04:33:17;9.17;;;7.33;;
20415;SDS011;10367;52.202;5.996;2022-09-30T04:35:46;18.23;;;7.53;;
20415;SDS011;10367;52.202;5.996;2022-09-30T04:38:14;10.57;;;8.00;;
20415;SDS011;10367;52.202;5.996;2022-09-30T04:40:44;12.57;;;6.97;;
20415;SDS011;10367;52.202;5.996;2022-09-30T04:43:15;11.27;;;7.73;;
20415;SDS011;10367;52.202;5.996;2022-09-30T04:45:44;18.53;;;10.40;;
20415;SDS011;10367;52.202;5.996;2022-09-30T04:48:14;11.37;;;8.13;;
20415;SDS011;10367;52.202;5.996;2022-09-30T04:50:43;10.33;;;6.33;;
20415;SDS011;10367;52.202;5.996;2022-09-30T04:53:12;9.33;;;6.87;;
20415;SDS011;10367;52.202;5.996;2022-09-30T04:55:41;8.83;;;6.47;;
20415;SDS011;10367;52.202;5.996;2022-09-30T04:58:14;10.17;;;7.57;;
20415;SDS011;10367;52.202;5.996;2022-09-30T05:00:43;10.43;;;7.27;;
20415;SDS011;10367;52.202;5.996;2022-09-30T05:03:12;9.50;;;6.07;;
20415;SDS011;10367;52.202;5.996;2022-09-30T05:05:42;8.90;;;6.00;;
20415;SDS011;10367;52.202;5.996;2022-09-30T05:08:11;10.53;;;6.60;;
20415;SDS011;10367;52.202;5.996;2022-09-30T05:10:41;10.50;;;7.60;;
20415;SDS011;10367;52.202;5.996;2022-09-30T05:13:09;13.03;;;6.93;;
20415;SDS011;10367;52.202;5.996;2022-09-30T05:15:39;8.50;;;6.50;;
20415;SDS011;10367;52.202;5.996;2022-09-30T05:18:08;8.67;;;6.40;;
20415;SDS011;10367;52.202;5.996;2022-09-30T05:20:37;7.07;;;6.33;;
20415;SDS011;10367;52.202;5.996;2022-09-30T05:23:06;8.83;;;6.07;;
20415;SDS011;10367;52.202;5.996;2022-09-30T05:25:35;13.17;;;8.10;;
20415;SDS011;10367;52.202;5.996;2022-09-30T05:28:03;15.77;;;8.63;;
20415;SDS011;10367;52.202;5.996;2022-09-30T05:30:32;23.53;;;10.33;;
20415;SDS011;10367;52.202;5.996;2022-09-30T05:33:02;14.67;;;8.80;;
20415;SDS011;10367;52.202;5.996;2022-09-30T05:35:31;11.07;;;7.10;;
20415;SDS011;10367;52.202;5.996;2022-09-30T05:38:00;12.17;;;8.13;;
20415;SDS011;10367;52.202;5.996;2022-09-30T05:40:30;9.97;;;7.47;;
20415;SDS011;10367;52.202;5.996;2022-09-30T05:42:59;10.07;;;7.17;;
20415;SDS011;10367;52.202;5.996;2022-09-30T05:45:28;12.77;;;8.00;;
20415;SDS011;10367;52.202;5.996;2022-09-30T05:47:57;11.37;;;7.23;;
20415;SDS011;10367;52.202;5.996;2022-09-30T05:50:29;12.33;;;7.10;;
20415;SDS011;10367;52.202;5.996;2022-09-30T05:52:58;12.67;;;7.67;;
20415;SDS011;10367;52.202;5.996;2022-09-30T05:55:27;14.40;;;8.50;;
20415;SDS011;10367;52.202;5.996;2022-09-30T05:58:04;13.53;;;8.47;;
20415;SDS011;10367;52.202;5.996;2022-09-30T06:00:32;10.90;;;7.10;;
20415;SDS011;10367;52.202;5.996;2022-09-30T06:03:01;16.00;;;9.10;;
20415;SDS011;10367;52.202;5.996;2022-09-30T06:05:31;14.93;;;8.63;;
20415;SDS011;10367;52.202;5.996;2022-09-30T06:08:02;17.57;;;9.53;;
20415;SDS011;10367;52.202;5.996;2022-09-30T06:10:33;17.43;;;8.77;;
20415;SDS011;10367;52.202;5.996;2022-09-30T06:13:02;11.53;;;7.43;;
20415;SDS011;10367;52.202;5.996;2022-09-30T06:15:31;11.60;;;7.47;;
20415;SDS011;10367;52.202;5.996;2022-09-30T06:18:02;18.33;;;8.33;;
20415;SDS011;10367;52.202;5.996;2022-09-30T06:20:32;13.77;;;8.30;;
20415;SDS011;10367;52.202;5.996;2022-09-30T06:23:01;13.20;;;8.50;;
20415;SDS011;10367;52.202;5.996;2022-09-30T06:25:30;12.47;;;8.07;;
20415;SDS011;10367;52.202;5.996;2022-09-30T06:27:59;13.40;;;9.03;;
20415;SDS011;10367;52.202;5.996;2022-09-30T06:30:31;8.83;;;6.87;;
20415;SDS011;10367;52.202;5.996;2022-09-30T06:33:01;11.23;;;7.73;;
20415;SDS011;10367;52.202;5.996;2022-09-30T06:35:30;14.03;;;8.77;;
20415;SDS011;10367;52.202;5.996;2022-09-30T06:37:59;13.53;;;9.07;;
20415;SDS011;10367;52.202;5.996;2022-09-30T06:40:28;10.97;;;7.90;;
20415;SDS011;10367;52.202;5.996;2022-09-30T06:42:57;11.17;;;8.40;;
20415;SDS011;10367;52.202;5.996;2022-09-30T06:45:26;13.07;;;8.67;;
20415;SDS011;10367;52.202;5.996;2022-09-30T06:47:59;15.73;;;10.47;;
20415;SDS011;10367;52.202;5.996;2022-09-30T06:50:30;15.70;;;9.20;;
20415;SDS011;10367;52.202;5.996;2022-09-30T06:53:03;15.07;;;9.87;;
20415;SDS011;10367;52.202;5.996;2022-09-30T06:55:34;13.23;;;8.83;;
20415;SDS011;10367;52.202;5.996;2022-09-30T06:58:05;15.30;;;9.97;;
20415;SDS011;10367;52.202;5.996;2022-09-30T07:00:37;12.77;;;9.57;;
20415;SDS011;10367;52.202;5.996;2022-09-30T07:03:05;14.43;;;9.57;;
20415;SDS011;10367;52.202;5.996;2022-09-30T07:05:37;11.37;;;8.53;;
20415;SDS011;10367;52.202;5.996;2022-09-30T07:08:05;16.73;;;10.77;;
20415;SDS011;10367;52.202;5.996;2022-09-30T07:10:34;12.83;;;9.27;;
20415;SDS011;10367;52.202;5.996;2022-09-30T07:13:04;12.50;;;9.63;;
20415;SDS011;10367;52.202;5.996;2022-09-30T07:15:32;12.70;;;9.53;;
20415;SDS011;10367;52.202;5.996;2022-09-30T07:18:01;18.27;;;11.30;;
20415;SDS011;10367;52.202;5.996;2022-09-30T07:20:29;22.07;;;10.77;;
20415;SDS011;10367;52.202;5.996;2022-09-30T07:23:00;16.73;;;11.03;;
20415;SDS011;10367;52.202;5.996;2022-09-30T07:25:29;15.73;;;10.33;;
20415;SDS011;10367;52.202;5.996;2022-09-30T07:27:57;23.67;;;13.57;;
20415;SDS011;10367;52.202;5.996;2022-09-30T07:30:26;23.13;;;12.87;;
20415;SDS011;10367;52.202;5.996;2022-09-30T07:32:55;33.17;;;14.67;;
20415;SDS011;10367;52.202;5.996;2022-09-30T07:35:23;22.17;;;14.03;;
20415;SDS011;10367;52.202;5.996;2022-09-30T07:37:52;34.47;;;16.57;;
20415;SDS011;10367;52.202;5.996;2022-09-30T07:40:22;31.83;;;17.23;;
20415;SDS011;10367;52.202;5.996;2022-09-30T07:42:57;37.63;;;19.03;;
20415;SDS011;10367;52.202;5.996;2022-09-30T07:45:26;38.60;;;19.40;;
20415;SDS011;10367;52.202;5.996;2022-09-30T07:47:54;34.33;;;20.37;;
20415;SDS011;10367;52.202;5.996;2022-09-30T07:50:24;41.63;;;20.77;;
20415;SDS011;10367;52.202;5.996;2022-09-30T07:52:53;40.50;;;22.00;;
20415;SDS011;10367;52.202;5.996;2022-09-30T07:55:23;43.83;;;21.17;;
20415;SDS011;10367;52.202;5.996;2022-09-30T07:57:52;43.87;;;22.50;;
20415;SDS011;10367;52.202;5.996;2022-09-30T08:00:20;44.43;;;23.53;;
20415;SDS011;10367;52.202;5.996;2022-09-30T08:03:07;35.33;;;20.57;;
20415;SDS011;10367;52.202;5.996;2022-09-30T08:05:37;38.57;;;21.63;;
20415;SDS011;10367;52.202;5.996;2022-09-30T08:08:06;39.83;;;23.17;;
20415;SDS011;10367;52.202;5.996;2022-09-30T08:10:36;38.00;;;22.37;;
20415;SDS011;10367;52.202;5.996;2022-09-30T08:13:05;31.63;;;20.40;;
20415;SDS011;10367;52.202;5.996;2022-09-30T08:15:35;30.63;;;20.37;;
20415;SDS011;10367;52.202;5.996;2022-09-30T08:18:04;32.30;;;20.70;;
20415;SDS011;10367;52.202;5.996;2022-09-30T08:20:32;28.43;;;18.83;;
20415;SDS011;10367;52.202;5.996;2022-09-30T08:23:01;28.77;;;19.97;;
20415;SDS011;10367;52.202;5.996;2022-09-30T08:25:30;24.30;;;17.53;;
20415;SDS011;10367;52.202;5.996;2022-09-30T08:28:01;31.67;;;20.13;;
20415;SDS011;10367;52.202;5.996;2022-09-30T08:30:30;31.20;;;20.67;;
20415;SDS011;10367;52.202;5.996;2022-09-30T08:33:01;33.43;;;21.80;;
20415;SDS011;10367;52.202;5.996;2022-09-30T08:35:30;32.17;;;21.70;;
20415;SDS011;10367;52.202;5.996;2022-09-30T08:38:01;38.17;;;21.77;;
20415;SDS011;10367;52.202;5.996;2022-09-30T08:40:31;32.67;;;20.43;;
20415;SDS011;10367;52.202;5.996;2022-09-30T08:43:09;29.93;;;20.97;;
20415;SDS011;10367;52.202;5.996;2022-09-30T08:45:49;29.13;;;20.53;;
20415;SDS011;10367;52.202;5.996;2022-09-30T08:48:28;30.20;;;20.23;;
20415;SDS011;10367;52.202;5.996;2022-09-30T08:51:08;30.30;;;20.43;;
20415;SDS011;10367;52.202;5.996;2022-09-30T08:53:55;28.67;;;20.13;;
20415;SDS011;10367;52.202;5.996;2022-09-30T08:56:28;32.13;;;22.00;;
20415;SDS011;10367;52.202;5.996;2022-09-30T08:59:00;30.93;;;20.93;;
20415;SDS011;10367;52.202;5.996;2022-09-30T09:01:39;28.10;;;19.63;;
20415;SDS011;10367;52.202;5.996;2022-09-30T09:04:11;24.80;;;20.37;;
20415;SDS011;10367;52.202;5.996;2022-09-30T09:06:44;31.47;;;20.10;;
20415;SDS011;10367;52.202;5.996;2022-09-30T09:09:36;25.37;;;19.43;;
20415;SDS011;10367;52.202;5.996;2022-09-30T09:12:20;25.13;;;18.73;;
20415;SDS011;10367;52.202;5.996;2022-09-30T09:15:01;24.20;;;17.87;;
20415;SDS011;10367;52.202;5.996;2022-09-30T09:17:52;23.00;;;16.63;;
20415;SDS011;10367;52.202;5.996;2022-09-30T09:20:52;22.60;;;17.13;;
20415;SDS011;10367;52.202;5.996;2022-09-30T09:23:23;21.80;;;17.97;;
20415;SDS011;10367;52.202;5.996;2022-09-30T09:25:54;23.10;;;17.20;;
20415;SDS011;10367;52.202;5.996;2022-09-30T09:28:24;23.50;;;18.90;;
20415;SDS011;10367;52.202;5.996;2022-09-30T09:31:04;19.90;;;16.70;;
20415;SDS011;10367;52.202;5.996;2022-09-30T09:33:37;21.00;;;16.77;;
20415;SDS011;10367;52.202;5.996;2022-09-30T09:36:11;18.87;;;16.70;;
20415;SDS011;10367;52.202;5.996;2022-09-30T09:38:56;18.00;;;16.07;;
20415;SDS011;10367;52.202;5.996;2022-09-30T09:41:33;18.43;;;16.50;;
20415;SDS011;10367;52.202;5.996;2022-09-30T09:44:10;23.07;;;19.30;;
20415;SDS011;10367;52.202;5.996;2022-09-30T09:46:50;21.27;;;17.90;;
20415;SDS011;10367;52.202;5.996;2022-09-30T09:49:31;20.30;;;17.27;;
20415;SDS011;10367;52.202;5.996;2022-09-30T09:52:11;21.17;;;18.47;;
20415;SDS011;10367;52.202;5.996;2022-09-30T09:54:56;22.47;;;18.67;;
20415;SDS011;10367;52.202;5.996;2022-09-30T09:57:26;21.40;;;18.50;;
20415;SDS011;10367;52.202;5.996;2022-09-30T09:59:58;22.47;;;19.00;;
20415;SDS011;10367;52.202;5.996;2022-09-30T10:03:00;22.93;;;19.73;;
20415;SDS011;10367;52.202;5.996;2022-09-30T10:05:31;20.70;;;18.63;;
20415;SDS011;10367;52.202;5.996;2022-09-30T10:08:09;23.83;;;20.20;;
20415;SDS011;10367;52.202;5.996;2022-09-30T10:10:45;21.30;;;19.47;;
20415;SDS011;10367;52.202;5.996;2022-09-30T10:13:16;26.83;;;22.17;;
20415;SDS011;10367;52.202;5.996;2022-09-30T10:15:46;24.20;;;21.70;;
20415;SDS011;10367;52.202;5.996;2022-09-30T10:18:20;23.23;;;20.83;;
20415;SDS011;10367;52.202;5.996;2022-09-30T10:20:54;23.77;;;21.33;;
20415;SDS011;10367;52.202;5.996;2022-09-30T10:23:26;24.50;;;21.97;;
20415;SDS011;10367;52.202;5.996;2022-09-30T10:25:58;22.00;;;19.53;;
20415;SDS011;10367;52.202;5.996;2022-09-30T10:28:32;22.90;;;20.63;;
20415;SDS011;10367;52.202;5.996;2022-09-30T10:31:05;24.20;;;21.17;;
20415;SDS011;10367;52.202;5.996;2022-09-30T10:33:42;22.30;;;20.00;;
20415;SDS011;10367;52.202;5.996;2022-09-30T10:36:14;26.27;;;22.13;;
20415;SDS011;10367;52.202;5.996;2022-09-30T10:38:46;24.63;;;22.13;;
20415;SDS011;10367;52.202;5.996;2022-09-30T10:41:20;26.77;;;23.73;;
20415;SDS011;10367;52.202;5.996;2022-09-30T10:43:52;27.03;;;24.13;;
20415;SDS011;10367;52.202;5.996;2022-09-30T10:46:23;24.37;;;21.77;;
20415;SDS011;10367;52.202;5.996;2022-09-30T10:48:56;28.47;;;24.30;;
20415;SDS011;10367;52.202;5.996;2022-09-30T10:51:29;25.93;;;23.33;;
20415;SDS011;10367;52.202;5.996;2022-09-30T10:54:02;28.67;;;24.67;;
20415;SDS011;10367;52.202;5.996;2022-09-30T10:56:34;26.57;;;23.80;;
20415;SDS011;10367;52.202;5.996;2022-09-30T10:59:13;24.60;;;22.17;;
20415;SDS011;10367;52.202;5.996;2022-09-30T11:01:49;25.03;;;22.60;;
20415;SDS011;10367;52.202;5.996;2022-09-30T11:04:27;24.27;;;21.87;;
20415;SDS011;10367;52.202;5.996;2022-09-30T11:07:02;23.03;;;20.83;;
20415;SDS011;10367;52.202;5.996;2022-09-30T11:09:43;21.57;;;19.67;;
20415;SDS011;10367;52.202;5.996;2022-09-30T11:12:17;25.50;;;22.90;;
20415;SDS011;10367;52.202;5.996;2022-09-30T11:14:54;22.87;;;20.67;;
20415;SDS011;10367;52.202;5.996;2022-09-30T11:17:31;24.70;;;22.20;;
20415;SDS011;10367;52.202;5.996;2022-09-30T11:20:13;24.73;;;22.30;;
20415;SDS011;10367;52.202;5.996;2022-09-30T11:22:49;23.83;;;21.63;;
20415;SDS011;10367;52.202;5.996;2022-09-30T11:25:23;23.07;;;20.77;;
20415;SDS011;10367;52.202;5.996;2022-09-30T11:28:03;25.60;;;22.37;;
20415;SDS011;10367;52.202;5.996;2022-09-30T11:30:44;23.90;;;21.63;;
20415;SDS011;10367;52.202;5.996;2022-09-30T11:33:25;23.80;;;21.57;;
20415;SDS011;10367;52.202;5.996;2022-09-30T11:36:20;23.00;;;20.93;;
20415;SDS011;10367;52.202;5.996;2022-09-30T11:38:57;23.63;;;21.67;;
20415;SDS011;10367;52.202;5.996;2022-09-30T11:41:41;23.40;;;21.23;;
20415;SDS011;10367;52.202;5.996;2022-09-30T11:44:18;23.77;;;21.60;;
20415;SDS011;10367;52.202;5.996;2022-09-30T11:47:01;24.13;;;22.03;;
20415;SDS011;10367;52.202;5.996;2022-09-30T11:50:03;24.10;;;21.90;;
20415;SDS011;10367;52.202;5.996;2022-09-30T11:52:49;23.50;;;21.30;;
20415;SDS011;10367;52.202;5.996;2022-09-30T11:55:31;24.13;;;21.83;;
20415;SDS011;10367;52.202;5.996;2022-09-30T11:58:11;24.13;;;21.63;;
20415;SDS011;10367;52.202;5.996;2022-09-30T12:01:06;25.87;;;23.43;;
20415;SDS011;10367;52.202;5.996;2022-09-30T12:03:42;22.93;;;21.03;;
20415;SDS011;10367;52.202;5.996;2022-09-30T12:06:18;24.10;;;21.60;;
20415;SDS011;10367;52.202;5.996;2022-09-30T12:08:55;22.83;;;20.73;;
20415;SDS011;10367;52.202;5.996;2022-09-30T12:11:31;23.50;;;21.13;;
20415;SDS011;10367;52.202;5.996;2022-09-30T12:14:05;22.07;;;20.03;;
20415;SDS011;10367;52.202;5.996;2022-09-30T12:16:41;22.53;;;20.23;;
20415;SDS011;10367;52.202;5.996;2022-09-30T12:19:13;22.77;;;20.60;;
20415;SDS011;10367;52.202;5.996;2022-09-30T12:21:52;22.83;;;20.83;;
20415;SDS011;10367;52.202;5.996;2022-09-30T12:24:30;21.73;;;20.10;;
20415;SDS011;10367;52.202;5.996;2022-09-30T12:27:02;22.33;;;20.27;;
20415;SDS011;10367;52.202;5.996;2022-09-30T12:29:33;21.80;;;20.00;;
20415;SDS011;10367;52.202;5.996;2022-09-30T12:35:41;22.23;;;20.33;;
20415;SDS011;10367;52.202;5.996;2022-09-30T12:38:42;22.23;;;19.83;;
20415;SDS011;10367;52.202;5.996;2022-09-30T12:41:39;22.30;;;20.37;;
20415;SDS011;10367;52.202;5.996;2022-09-30T12:47:45;21.03;;;19.23;;
20415;SDS011;10367;52.202;5.996;2022-09-30T12:50:17;21.37;;;19.37;;
20415;SDS011;10367;52.202;5.996;2022-09-30T12:52:47;22.37;;;20.20;;
20415;SDS011;10367;52.202;5.996;2022-09-30T12:55:19;22.30;;;20.03;;
20415;SDS011;10367;52.202;5.996;2022-09-30T12:57:55;23.73;;;21.57;;
20415;SDS011;10367;52.202;5.996;2022-09-30T13:00:29;22.73;;;20.50;;
20415;SDS011;10367;52.202;5.996;2022-09-30T13:03:02;23.63;;;21.37;;
20415;SDS011;10367;52.202;5.996;2022-09-30T13:05:52;20.27;;;18.63;;
20415;SDS011;10367;52.202;5.996;2022-09-30T13:19:52;18.90;;;17.50;;
20415;SDS011;10367;52.202;5.996;2022-09-30T13:25:11;18.47;;;17.03;;
20415;SDS011;10367;52.202;5.996;2022-09-30T13:27:42;17.67;;;16.37;;
20415;SDS011;10367;52.202;5.996;2022-09-30T13:30:33;20.00;;;18.43;;
20415;SDS011;10367;52.202;5.996;2022-09-30T13:36:17;18.47;;;17.07;;
20415;SDS011;10367;52.202;5.996;2022-09-30T13:41:52;18.63;;;17.17;;
20415;SDS011;10367;52.202;5.996;2022-09-30T13:44:32;18.20;;;16.80;;
20415;SDS011;10367;52.202;5.996;2022-09-30T13:47:11;18.13;;;16.80;;
20415;SDS011;10367;52.202;5.996;2022-09-30T13:49:45;19.73;;;17.63;;
20415;SDS011;10367;52.202;5.996;2022-09-30T13:52:21;20.23;;;18.57;;
20415;SDS011;10367;52.202;5.996;2022-09-30T13:54:53;19.40;;;17.80;;
20415;SDS011;10367;52.202;5.996;2022-09-30T13:57:26;18.17;;;16.67;;
20415;SDS011;10367;52.202;5.996;2022-09-30T14:00:05;19.10;;;17.60;;
20415;SDS011;10367;52.202;5.996;2022-09-30T14:05:47;17.17;;;15.97;;
20415;SDS011;10367;52.202;5.996;2022-09-30T14:08:41;19.00;;;17.40;;
20415;SDS011;10367;52.202;5.996;2022-09-30T14:11:36;17.83;;;16.47;;
20415;SDS011;10367;52.202;5.996;2022-09-30T14:17:25;20.53;;;18.03;;
20415;SDS011;10367;52.202;5.996;2022-09-30T14:20:16;17.33;;;16.13;;
20415;SDS011;10367;52.202;5.996;2022-09-30T14:22:57;17.67;;;16.20;;
20415;SDS011;10367;52.202;5.996;2022-09-30T14:25:28;17.03;;;15.83;;
20415;SDS011;10367;52.202;5.996;2022-09-30T14:28:02;18.40;;;16.97;;
20415;SDS011;10367;52.202;5.996;2022-09-30T14:30:36;17.83;;;16.53;;
20415;SDS011;10367;52.202;5.996;2022-09-30T14:33:10;19.03;;;17.37;;
20415;SDS011;10367;52.202;5.996;2022-09-30T14:35:47;17.97;;;16.47;;
20415;SDS011;10367;52.202;5.996;2022-09-30T14:38:19;17.57;;;16.13;;
20415;SDS011;10367;52.202;5.996;2022-09-30T14:40:54;18.30;;;16.80;;
20415;SDS011;10367;52.202;5.996;2022-09-30T14:43:28;19.43;;;17.80;;
20415;SDS011;10367;52.202;5.996;2022-09-30T14:46:09;18.90;;;17.27;;
20415;SDS011;10367;52.202;5.996;2022-09-30T14:48:46;18.63;;;17.10;;
20415;SDS011;10367;52.202;5.996;2022-09-30T14:51:20;18.23;;;16.70;;
20415;SDS011;10367;52.202;5.996;2022-09-30T14:53:53;18.23;;;16.90;;
20415;SDS011;10367;52.202;5.996;2022-09-30T14:56:25;16.63;;;15.53;;
20415;SDS011;10367;52.202;5.996;2022-09-30T14:58:58;17.33;;;16.10;;
20415;SDS011;10367;52.202;5.996;2022-09-30T15:01:29;20.27;;;18.40;;
20415;SDS011;10367;52.202;5.996;2022-09-30T15:04:03;16.60;;;15.27;;
20415;SDS011;10367;52.202;5.996;2022-09-30T15:06:37;18.17;;;16.70;;
20415;SDS011;10367;52.202;5.996;2022-09-30T15:09:14;19.00;;;17.30;;
20415;SDS011;10367;52.202;5.996;2022-09-30T15:11:44;18.17;;;16.67;;
20415;SDS011;10367;52.202;5.996;2022-09-30T15:14:15;18.47;;;16.97;;
20415;SDS011;10367;52.202;5.996;2022-09-30T15:16:47;16.60;;;15.47;;
20415;SDS011;10367;52.202;5.996;2022-09-30T15:19:17;17.83;;;16.40;;
20415;SDS011;10367;52.202;5.996;2022-09-30T15:21:50;16.77;;;15.57;;
20415;SDS011;10367;52.202;5.996;2022-09-30T15:24:21;17.60;;;16.27;;
20415;SDS011;10367;52.202;5.996;2022-09-30T15:26:53;16.83;;;15.60;;
20415;SDS011;10367;52.202;5.996;2022-09-30T15:29:22;18.93;;;17.23;;
20415;SDS011;10367;52.202;5.996;2022-09-30T15:31:54;18.70;;;17.20;;
20415;SDS011;10367;52.202;5.996;2022-09-30T15:34:27;17.80;;;16.47;;
20415;SDS011;10367;52.202;5.996;2022-09-30T15:36:58;17.20;;;15.90;;
20415;SDS011;10367;52.202;5.996;2022-09-30T15:39:33;16.87;;;15.57;;
20415;SDS011;10367;52.202;5.996;2022-09-30T15:42:30;18.20;;;16.60;;
20415;SDS011;10367;52.202;5.996;2022-09-30T15:45:02;17.03;;;15.87;;
20415;SDS011;10367;52.202;5.996;2022-09-30T15:47:32;17.80;;;16.40;;
20415;SDS011;10367;52.202;5.996;2022-09-30T15:50:34;18.20;;;16.53;;